Time;durP1;ratioP1;P1;durP2;ratioP2;P2;SDS_P1;SDS_P2;PMS_P1;PMS_P2;Temp;Humidity;BMP_temperature;BMP_pressure;BME280_temperature;BME280_humidity;BME280_pressure;Samples;Min_cycle;Max_cycle;Signal;HPM_P1;HPM_P2
2023/06/05 00:01:45;;;;;;;74.95;51.85;;;19.20;64.00;;;;;;4939223;28;91924;-71
2023/06/05 00:04:10;;;;;;;75.60;52.13;;;19.20;63.80;;;;;;4951708;28;89652;-72
2023/06/05 00:06:37;;;;;;;72.80;51.47;;;19.10;63.80;;;;;;4949707;28;88677;-72
2023/06/05 00:09:06;;;;;;;72.50;51.28;;;19.10;64.00;;;;;;4945934;28;90986;-69
2023/06/05 00:11:32;;;;;;;72.88;51.58;;;19.00;64.10;;;;;;4954915;28;95607;-72
2023/06/05 00:13:58;;;;;;;74.75;52.22;;;19.00;64.40;;;;;;4959684;28;90842;-72
2023/06/05 00:16:24;;;;;;;73.45;51.72;;;19.00;64.30;;;;;;4950349;28;90706;-73
2023/06/05 00:18:50;;;;;;;73.63;51.65;;;19.00;64.20;;;;;;4944311;28;91011;-71
2023/06/05 00:21:15;;;;;;;72.85;52.13;;;19.00;64.40;;;;;;4954473;28;90337;-74
2023/06/05 00:23:41;;;;;;;73.30;52.08;;;19.00;64.60;;;;;;4953404;28;89582;-70
2023/06/05 00:26:07;;;;;;;75.05;51.90;;;19.00;64.50;;;;;;4951686;28;90106;-71
2023/06/05 00:28:33;;;;;;;73.78;52.33;;;18.90;64.90;;;;;;4956670;28;92173;-72
2023/06/05 00:30:59;;;;;;;72.80;51.67;;;19.00;64.60;;;;;;4948566;28;89015;-71
2023/06/05 00:33:26;;;;;;;73.25;52.17;;;18.90;64.90;;;;;;4949230;28;89858;-72
2023/06/05 00:35:52;;;;;;;72.80;51.78;;;18.90;64.80;;;;;;4958248;28;90126;-70
2023/06/05 00:38:17;;;;;;;72.38;51.55;;;18.90;65.00;;;;;;4946951;28;95424;-71
2023/06/05 00:40:43;;;;;;;71.55;51.33;;;18.90;65.10;;;;;;4948889;28;95486;-71
2023/06/05 00:43:09;;;;;;;73.82;51.83;;;18.90;65.20;;;;;;4946177;28;90352;-70
2023/06/05 00:45:35;;;;;;;73.03;51.65;;;18.90;65.20;;;;;;4944530;28;89666;-72
2023/06/05 00:48:01;;;;;;;73.70;51.60;;;18.80;64.70;;;;;;4954996;28;90082;-72
2023/06/05 00:50:27;;;;;;;72.60;51.90;;;18.80;65.40;;;;;;4958178;28;89517;-72
2023/06/05 00:52:53;;;;;;;73.35;51.80;;;18.80;65.10;;;;;;4935031;28;90903;-72
2023/06/05 00:55:19;;;;;;;71.57;51.80;;;18.70;65.30;;;;;;4948054;28;88811;-72
2023/06/05 00:57:45;;;;;;;72.63;51.80;;;18.70;65.70;;;;;;4953375;28;90708;-71
2023/06/05 01:00:12;;;;;;;72.65;51.50;;;18.70;65.70;;;;;;4937682;28;91884;-70
2023/06/05 01:02:39;;;;;;;71.68;51.63;;;18.70;65.70;;;;;;4958956;28;91027;-72
2023/06/05 01:05:05;;;;;;;73.55;52.05;;;18.60;66.00;;;;;;4954806;28;89542;-71
2023/06/05 01:07:33;;;;;;;71.72;51.67;;;18.60;65.80;;;;;;4948430;28;89790;-71
2023/06/05 01:10:03;;;;;;;70.85;51.33;;;18.60;66.10;;;;;;4938059;28;94446;-71
2023/06/05 01:12:51;;;;;;;73.25;51.70;;;18.60;66.30;;;;;;4942460;28;89883;-72
2023/06/05 01:15:18;;;;;;;72.28;51.42;;;18.60;66.30;;;;;;4946943;28;90502;-71
2023/06/05 01:17:47;;;;;;;73.53;51.42;;;18.50;66.40;;;;;;4941712;28;90880;-73
2023/06/05 01:20:13;;;;;;;71.55;51.42;;;18.50;66.50;;;;;;4954599;28;89988;-71
2023/06/05 01:22:39;;;;;;;71.72;51.95;;;18.50;66.80;;;;;;4947923;28;94947;-70
2023/06/05 01:25:07;;;;;;;71.50;51.38;;;18.50;66.80;;;;;;4948619;28;89465;-71
2023/06/05 01:27:50;;;;;;;73.95;51.33;;;18.50;67.50;;;;;;4953466;28;91978;-72
2023/06/05 01:30:28;;;;;;;72.13;51.30;;;18.40;66.70;;;;;;4956581;28;91398;-71
2023/06/05 01:33:02;;;;;;;72.38;51.58;;;18.40;67.00;;;;;;4964064;28;89494;-71
2023/06/05 01:35:32;;;;;;;71.63;51.38;;;18.40;66.50;;;;;;4959143;28;90468;-71
2023/06/05 01:38:05;;;;;;;72.15;51.20;;;18.30;67.20;;;;;;4949289;28;90245;-71
2023/06/05 01:40:34;;;;;;;72.03;51.67;;;18.30;67.10;;;;;;4953143;28;90391;-73
2023/06/05 01:43:01;;;;;;;70.90;50.83;;;18.30;67.00;;;;;;4954705;28;89687;-72
2023/06/05 01:45:27;;;;;;;73.20;51.38;;;18.30;67.20;;;;;;4940954;28;89392;-71
2023/06/05 01:47:54;;;;;;;72.88;51.60;;;18.30;67.50;;;;;;4960442;28;90490;-72
2023/06/05 01:50:20;;;;;;;71.85;51.63;;;18.30;67.50;;;;;;4958295;28;89778;-72
2023/06/05 01:52:47;;;;;;;72.47;52.05;;;18.30;66.90;;;;;;4953291;28;91125;-73
2023/06/05 01:55:23;;;;;;;72.00;51.53;;;18.20;67.50;;;;;;4947247;28;90263;-72
2023/06/05 01:57:49;;;;;;;71.30;51.20;;;18.20;67.60;;;;;;4950367;28;90012;-72
2023/06/05 02:00:15;;;;;;;72.32;51.78;;;18.20;67.80;;;;;;4947198;28;89917;-70
2023/06/05 02:02:42;;;;;;;72.47;52.08;;;18.10;67.30;;;;;;4952637;28;95343;-70
2023/06/05 02:05:12;;;;;;;71.35;51.65;;;18.10;67.70;;;;;;4950960;28;89792;-71
2023/06/05 02:07:39;;;;;;;71.13;51.58;;;18.10;67.80;;;;;;4956718;28;90084;-70
2023/06/05 02:10:08;;;;;;;73.00;51.85;;;18.00;67.70;;;;;;4951687;28;89861;-72
2023/06/05 02:12:37;;;;;;;72.13;51.50;;;18.00;68.70;;;;;;4948465;28;89728;-72
2023/06/05 02:15:03;;;;;;;70.97;51.15;;;18.00;68.10;;;;;;4957603;28;89544;-71
2023/06/05 02:17:29;;;;;;;72.43;51.67;;;18.00;68.00;;;;;;4934561;28;92964;-72
2023/06/05 02:19:55;;;;;;;71.15;51.65;;;18.00;67.80;;;;;;4947484;28;95229;-71
2023/06/05 02:22:23;;;;;;;72.40;51.65;;;18.00;68.00;;;;;;4950109;28;89986;-72
2023/06/05 02:24:51;;;;;;;70.43;51.05;;;18.00;68.30;;;;;;4954340;28;89689;-71
2023/06/05 02:27:17;;;;;;;71.07;51.30;;;18.00;68.70;;;;;;4927526;28;90159;-72
2023/06/05 02:29:43;;;;;;;71.57;51.35;;;18.00;68.40;;;;;;4951625;28;91029;-73
2023/06/05 02:32:09;;;;;;;71.88;51.72;;;18.10;68.70;;;;;;4952480;28;89885;-71
2023/06/05 02:34:35;;;;;;;71.63;51.85;;;18.00;68.30;;;;;;4951218;28;93898;-72
2023/06/05 02:37:01;;;;;;;73.15;51.65;;;18.00;68.20;;;;;;4930791;28;93172;-71
2023/06/05 02:39:27;;;;;;;71.10;51.33;;;17.90;68.20;;;;;;4957409;28;90206;-71
2023/06/05 02:41:55;;;;;;;72.93;51.58;;;17.90;69.00;;;;;;4951830;28;92010;-70
2023/06/05 02:44:21;;;;;;;71.75;51.63;;;17.80;68.70;;;;;;4938740;28;90180;-72
2023/06/05 02:46:46;;;;;;;72.78;51.50;;;17.80;68.90;;;;;;4949925;28;90162;-73
2023/06/05 02:49:12;;;;;;;72.18;51.25;;;17.80;69.10;;;;;;4948080;28;89713;-71
2023/06/05 02:51:38;;;;;;;71.47;51.22;;;17.80;68.70;;;;;;4949752;28;89719;-70
2023/06/05 02:54:03;;;;;;;69.80;51.28;;;17.80;69.00;;;;;;4956962;28;89660;-72
2023/06/05 02:56:29;;;;;;;71.63;51.25;;;17.80;69.30;;;;;;4949460;28;90220;-72
2023/06/05 02:58:56;;;;;;;69.90;50.80;;;17.80;68.90;;;;;;4948288;28;95085;-72
2023/06/05 03:01:22;;;;;;;72.40;51.40;;;17.80;69.40;;;;;;4951308;28;89881;-72
2023/06/05 03:03:48;;;;;;;71.20;51.08;;;17.80;69.00;;;;;;4953719;28;90853;-71
2023/06/05 03:06:17;;;;;;;70.85;51.10;;;17.70;69.40;;;;;;4954287;28;91209;-72
2023/06/05 03:08:43;;;;;;;70.95;51.25;;;17.80;69.60;;;;;;4959162;28;89851;-69
2023/06/05 03:11:09;;;;;;;69.90;51.25;;;17.70;69.30;;;;;;4949813;28;91304;-71
2023/06/05 03:13:35;;;;;;;72.35;51.38;;;17.70;69.80;;;;;;4946958;28;91564;-72
2023/06/05 03:16:03;;;;;;;71.68;51.20;;;17.70;69.30;;;;;;4951263;28;90528;-73
2023/06/05 03:18:29;;;;;;;69.63;51.05;;;17.70;69.50;;;;;;4951943;28;90385;-70
2023/06/05 03:20:56;;;;;;;71.18;51.20;;;17.60;69.30;;;;;;4948552;28;90573;-71
2023/06/05 03:23:25;;;;;;;70.97;51.15;;;17.60;69.30;;;;;;4954273;28;89206;-71
2023/06/05 03:25:51;;;;;;;71.43;51.42;;;17.60;69.70;;;;;;4947227;28;90026;-69
2023/06/05 03:28:18;;;;;;;70.97;50.95;;;17.60;69.50;;;;;;4952948;28;89796;-71
2023/06/05 03:30:44;;;;;;;70.85;51.60;;;17.50;70.20;;;;;;4941763;28;91557;-71
2023/06/05 03:33:10;;;;;;;69.95;50.90;;;17.60;69.80;;;;;;4952680;28;89913;-71
2023/06/05 03:35:36;;;;;;;69.82;51.33;;;17.50;69.90;;;;;;4946337;28;91885;-71
2023/06/05 03:38:02;;;;;;;70.55;51.03;;;17.50;70.10;;;;;;4947996;28;90417;-73
2023/06/05 03:40:28;;;;;;;70.38;51.55;;;17.50;70.20;;;;;;4951475;28;90593;-70
2023/06/05 03:42:54;;;;;;;70.25;51.38;;;17.50;70.20;;;;;;4934850;28;89994;-72
2023/06/05 03:45:20;;;;;;;71.03;51.25;;;17.50;69.80;;;;;;4957058;28;89854;-70
2023/06/05 03:47:48;;;;;;;69.53;50.85;;;17.50;70.30;;;;;;4959150;28;90888;-72
2023/06/05 03:50:15;;;;;;;70.03;51.28;;;17.50;70.60;;;;;;4951869;28;89688;-71
2023/06/05 03:52:41;;;;;;;71.55;51.33;;;17.50;69.80;;;;;;4956655;28;90404;-71
2023/06/05 03:55:07;;;;;;;70.68;50.83;;;17.40;70.40;;;;;;4957649;28;90485;-72
2023/06/05 03:57:34;;;;;;;72.32;51.58;;;17.40;70.30;;;;;;4958919;28;90347;-71
2023/06/05 03:59:59;;;;;;;72.20;51.78;;;17.40;70.50;;;;;;4955355;28;89833;-72
2023/06/05 04:02:25;;;;;;;70.97;51.28;;;17.40;69.40;;;;;;4929699;28;91927;-72
2023/06/05 04:04:51;;;;;;;70.50;51.08;;;17.40;71.00;;;;;;4944184;28;89905;-71
2023/06/05 04:07:17;;;;;;;71.60;50.90;;;17.40;70.70;;;;;;4938358;28;92731;-72
2023/06/05 04:09:43;;;;;;;71.13;50.75;;;17.40;70.90;;;;;;4958874;28;94123;-71
2023/06/05 04:12:14;;;;;;;72.63;51.78;;;17.50;70.60;;;;;;4958224;28;89547;-71
2023/06/05 04:14:40;;;;;;;70.90;51.33;;;17.40;70.10;;;;;;4957260;28;90064;-71
2023/06/05 04:17:06;;;;;;;69.88;50.95;;;17.40;70.40;;;;;;4937985;28;92855;-71
2023/06/05 04:19:31;;;;;;;72.28;51.50;;;17.40;70.50;;;;;;4951089;28;90792;-72
2023/06/05 04:21:57;;;;;;;70.80;51.60;;;17.50;70.30;;;;;;4951159;28;90273;-72
2023/06/05 04:24:25;;;;;;;72.10;51.63;;;17.40;69.90;;;;;;4945058;28;93118;-71
2023/06/05 04:26:51;;;;;;;71.05;51.42;;;17.50;69.10;;;;;;4940073;28;93273;-72
2023/06/05 04:29:18;;;;;;;72.70;51.13;;;17.50;70.10;;;;;;4948419;28;89729;-71
2023/06/05 04:31:45;;;;;;;71.93;51.00;;;17.40;69.80;;;;;;4957991;28;89848;-71
2023/06/05 04:34:11;;;;;;;73.40;51.25;;;17.50;70.10;;;;;;4953112;28;90235;-71
2023/06/05 04:36:37;;;;;;;70.75;51.42;;;17.50;69.40;;;;;;4960303;28;88742;-71
2023/06/05 04:39:04;;;;;;;71.88;51.53;;;17.50;69.20;;;;;;4956612;28;89769;-71
2023/06/05 04:41:32;;;;;;;70.80;51.05;;;17.40;69.30;;;;;;4958631;28;90971;-72
2023/06/05 04:43:59;;;;;;;72.07;51.25;;;17.50;70.20;;;;;;4956383;28;90718;-72
2023/06/05 04:46:26;;;;;;;70.50;51.17;;;17.50;70.30;;;;;;4952765;28;90694;-72
2023/06/05 04:48:55;;;;;;;71.10;51.53;;;17.50;69.50;;;;;;4962288;28;89404;-71
2023/06/05 04:51:21;;;;;;;71.30;51.22;;;17.50;69.50;;;;;;4952904;28;91176;-72
2023/06/05 04:53:50;;;;;;;71.25;51.53;;;17.60;69.30;;;;;;4958657;28;90091;-72
2023/06/05 04:56:16;;;;;;;71.32;51.45;;;17.50;68.70;;;;;;4960633;28;90009;-71
2023/06/05 04:58:42;;;;;;;69.80;50.65;;;17.50;69.00;;;;;;4953905;28;89707;-70
2023/06/05 05:01:08;;;;;;;72.75;51.80;;;17.60;70.20;;;;;;4941367;28;88792;-71
2023/06/05 05:03:33;;;;;;;71.30;51.42;;;17.50;68.20;;;;;;4962205;28;90625;-72
2023/06/05 05:06:00;;;;;;;71.85;51.38;;;17.50;69.60;;;;;;4958028;28;89765;-71
2023/06/05 05:08:27;;;;;;;70.07;50.97;;;17.50;69.20;;;;;;4960449;28;91372;-74
2023/06/05 05:10:53;;;;;;;71.25;51.08;;;17.50;69.70;;;;;;4961912;28;89600;-74
2023/06/05 05:13:19;;;;;;;70.57;51.08;;;17.60;69.70;;;;;;4956986;28;89579;-72
2023/06/05 05:15:46;;;;;;;69.65;51.13;;;17.70;69.50;;;;;;4965126;28;89344;-72
2023/06/05 05:18:12;;;;;;;72.53;51.75;;;17.70;69.20;;;;;;4964644;28;89218;-72
2023/06/05 05:20:38;;;;;;;72.45;51.92;;;17.60;68.80;;;;;;4960592;28;90309;-73
2023/06/05 05:23:07;;;;;;;71.18;51.22;;;17.70;68.60;;;;;;4960667;28;89258;-70
2023/06/05 05:25:33;;;;;;;73.10;51.55;;;17.70;69.30;;;;;;4958715;28;88769;-73
2023/06/05 05:27:58;;;;;;;71.65;51.03;;;17.70;69.30;;;;;;4963581;28;90416;-72
2023/06/05 05:30:24;;;;;;;71.65;51.28;;;17.70;69.50;;;;;;4958477;28;89401;-71
2023/06/05 05:32:49;;;;;;;70.75;50.88;;;17.80;69.20;;;;;;4955671;28;90614;-71
2023/06/05 05:35:15;;;;;;;71.82;51.58;;;17.80;68.70;;;;;;4950223;28;91943;-71
2023/06/05 05:37:41;;;;;;;73.93;52.08;;;17.80;68.60;;;;;;4961019;28;89561;-71
2023/06/05 05:40:07;;;;;;;74.32;51.85;;;17.80;69.50;;;;;;4958836;28;89740;-72
2023/06/05 05:42:32;;;;;;;72.30;51.75;;;17.90;68.10;;;;;;4961111;28;89533;-72
2023/06/05 05:44:58;;;;;;;74.53;52.03;;;17.90;69.20;;;;;;4960820;28;89346;-71
2023/06/05 05:47:24;;;;;;;73.13;51.70;;;17.90;68.80;;;;;;4956603;28;89664;-71
2023/06/05 05:49:49;;;;;;;74.43;51.95;;;17.90;68.80;;;;;;4961841;28;88588;-71
2023/06/05 05:52:15;;;;;;;76.35;52.30;;;18.00;68.80;;;;;;4960541;28;89150;-69
2023/06/05 05:54:41;;;;;;;72.43;51.80;;;18.00;69.10;;;;;;4956798;28;90857;-71
2023/06/05 05:57:07;;;;;;;72.72;51.78;;;18.00;68.70;;;;;;4958640;28;89808;-71
2023/06/05 05:59:32;;;;;;;72.35;51.92;;;18.00;69.20;;;;;;4965394;28;89034;-71
2023/06/05 06:02:00;;;;;;;72.57;51.72;;;18.00;69.60;;;;;;4961886;28;89299;-71
2023/06/05 06:04:26;;;;;;;76.28;52.30;;;18.10;69.40;;;;;;4960362;28;89903;-73
2023/06/05 06:06:52;;;;;;;75.85;52.30;;;18.10;69.30;;;;;;4948185;28;89328;-72
2023/06/05 06:09:18;;;;;;;73.60;52.17;;;18.10;70.00;;;;;;4952850;28;89393;-72
2023/06/05 06:11:44;;;;;;;73.00;52.25;;;18.10;70.30;;;;;;4959555;28;89370;-73
2023/06/05 06:14:10;;;;;;;75.32;52.63;;;18.20;70.30;;;;;;4963285;28;89630;-71
2023/06/05 06:16:40;;;;;;;78.57;52.38;;;18.20;70.30;;;;;;4959625;28;89450;-71
2023/06/05 06:19:05;;;;;;;78.57;53.30;;;18.20;69.30;;;;;;4962230;28;89244;-71
2023/06/05 06:21:31;;;;;;;75.97;52.47;;;18.20;70.50;;;;;;4953944;28;90125;-73
2023/06/05 06:23:57;;;;;;;78.13;52.92;;;18.20;68.90;;;;;;4955762;28;90013;-71
2023/06/05 06:26:23;;;;;;;79.90;53.22;;;18.20;69.90;;;;;;4938341;28;89764;-71
2023/06/05 06:28:49;;;;;;;80.25;54.05;;;18.20;69.90;;;;;;4957288;28;89288;-72
2023/06/05 06:31:14;;;;;;;78.93;54.28;;;18.20;68.70;;;;;;4970122;28;90624;-72
2023/06/05 06:33:40;;;;;;;78.82;52.95;;;18.20;69.00;;;;;;4959955;28;89426;-72
2023/06/05 06:36:06;;;;;;;77.38;54.05;;;18.20;68.90;;;;;;4964282;28;90172;-72
2023/06/05 06:38:32;;;;;;;76.35;53.05;;;18.20;68.20;;;;;;4959172;28;88577;-73
2023/06/05 06:40:58;;;;;;;75.80;52.40;;;18.20;67.90;;;;;;4959632;28;89281;-71
2023/06/05 06:43:24;;;;;;;74.88;52.08;;;18.20;68.50;;;;;;4955540;28;89276;-72
2023/06/05 06:45:50;;;;;;;76.70;53.33;;;18.20;69.10;;;;;;4952410;28;90153;-71
2023/06/05 06:48:20;;;;;;;75.05;52.72;;;18.30;68.60;;;;;;4963253;28;89646;-72
2023/06/05 06:50:46;;;;;;;75.05;52.42;;;18.30;69.00;;;;;;4943950;28;88931;-72
2023/06/05 06:53:11;;;;;;;74.05;52.55;;;18.40;68.70;;;;;;4961171;28;89488;-72
2023/06/05 06:55:37;;;;;;;75.18;52.90;;;18.40;68.20;;;;;;4958851;28;88813;-72
2023/06/05 06:58:04;;;;;;;75.40;52.80;;;18.40;68.50;;;;;;4947895;28;89289;-72
2023/06/05 07:00:30;;;;;;;73.53;52.53;;;18.40;68.00;;;;;;4940070;28;91062;-72
2023/06/05 07:02:56;;;;;;;75.43;52.60;;;18.40;68.50;;;;;;4955838;28;89783;-72
2023/06/05 07:05:22;;;;;;;75.80;54.90;;;18.40;67.70;;;;;;4955887;28;89599;-73
2023/06/05 07:07:48;;;;;;;75.70;54.42;;;18.30;66.60;;;;;;4947314;28;90528;-74
2023/06/05 07:10:13;;;;;;;76.95;54.40;;;18.30;66.10;;;;;;4952975;28;92398;-76
2023/06/05 07:12:39;;;;;;;76.35;55.05;;;18.10;66.60;;;;;;4955939;28;90039;-74
2023/06/05 07:15:05;;;;;;;75.88;55.00;;;18.20;67.20;;;;;;4951210;28;91835;-74
2023/06/05 07:17:31;;;;;;;75.00;53.95;;;18.10;66.00;;;;;;4967245;28;90092;-75
2023/06/05 07:19:57;;;;;;;73.65;52.97;;;18.00;67.80;;;;;;4956473;28;89758;-74
2023/06/05 07:22:26;;;;;;;75.43;54.20;;;18.40;66.30;;;;;;4935303;28;91823;-74
2023/06/05 07:24:53;;;;;;;78.05;54.78;;;18.50;65.60;;;;;;4958661;28;89529;-74
2023/06/05 07:27:20;;;;;;;76.03;55.00;;;18.40;64.60;;;;;;4955280;28;88960;-73
2023/06/05 07:29:46;;;;;;;77.22;55.80;;;18.40;65.80;;;;;;4956208;28;89522;-75
2023/06/05 07:32:12;;;;;;;79.88;54.97;;;18.40;64.80;;;;;;4951677;28;89871;-75
2023/06/05 07:34:38;;;;;;;77.72;54.90;;;18.30;64.60;;;;;;4955422;28;90935;-76
2023/06/05 07:37:04;;;;;;;78.90;55.47;;;18.40;66.00;;;;;;4960994;28;90169;-74
2023/06/05 07:39:30;;;;;;;78.50;55.42;;;18.40;64.10;;;;;;4952564;28;90135;-75
2023/06/05 07:41:55;;;;;;;79.20;55.40;;;18.30;64.50;;;;;;4953145;28;90703;-74
2023/06/05 07:44:21;;;;;;;77.70;55.53;;;18.30;65.60;;;;;;4953487;28;89750;-72
2023/06/05 07:46:48;;;;;;;78.70;55.72;;;18.30;64.90;;;;;;4953788;28;89859;-73
2023/06/05 07:49:15;;;;;;;77.20;55.35;;;18.30;66.20;;;;;;4959581;28;90250;-74
2023/06/05 07:51:42;;;;;;;81.05;56.22;;;18.10;66.30;;;;;;4956636;28;89989;-73
2023/06/05 07:54:10;;;;;;;77.22;55.00;;;18.20;66.20;;;;;;4930353;28;90544;-72
2023/06/05 07:56:36;;;;;;;77.50;55.40;;;18.30;66.00;;;;;;4956554;28;90874;-73
2023/06/05 07:59:03;;;;;;;78.40;55.20;;;18.10;64.90;;;;;;4955905;28;90647;-74
2023/06/05 08:01:29;;;;;;;78.95;55.65;;;18.10;66.50;;;;;;4950925;28;90962;-73
2023/06/05 08:03:55;;;;;;;75.00;54.67;;;18.10;65.60;;;;;;4960869;28;89774;-74
2023/06/05 08:06:24;;;;;;;75.47;54.50;;;18.10;65.80;;;;;;4954464;28;90214;-72
2023/06/05 08:08:50;;;;;;;77.68;55.67;;;18.20;66.20;;;;;;4954376;28;89764;-74
2023/06/05 08:11:15;;;;;;;81.32;55.13;;;18.40;65.90;;;;;;4960502;28;90119;-75
2023/06/05 08:13:43;;;;;;;76.35;54.78;;;18.40;65.70;;;;;;4957044;28;90000;-74
2023/06/05 08:16:08;;;;;;;79.30;55.28;;;18.60;65.40;;;;;;4936186;28;88795;-71
2023/06/05 08:18:34;;;;;;;83.40;56.15;;;18.60;64.90;;;;;;4961731;28;90469;-74
2023/06/05 08:21:00;;;;;;;78.18;54.95;;;18.40;64.60;;;;;;4954056;28;90270;-74
2023/06/05 08:23:26;;;;;;;78.43;56.50;;;18.40;65.80;;;;;;4960067;28;90520;-74
2023/06/05 08:25:53;;;;;;;79.20;54.97;;;18.40;65.20;;;;;;4963568;28;90722;-71
2023/06/05 08:28:18;;;;;;;75.70;52.72;;;18.40;65.70;;;;;;4978517;28;89004;-71
2023/06/05 08:30:44;;;;;;;74.55;53.65;;;18.50;65.60;;;;;;4975662;28;89841;-72
2023/06/05 08:33:10;;;;;;;73.07;52.80;;;18.50;66.10;;;;;;4976531;28;89216;-71
2023/06/05 08:35:37;;;;;;;74.70;53.03;;;18.60;65.60;;;;;;4984966;28;89405;-71
2023/06/05 08:38:03;;;;;;;75.38;52.95;;;18.60;66.00;;;;;;4967648;28;89394;-72
2023/06/05 08:40:29;;;;;;;75.13;53.42;;;18.60;66.00;;;;;;4981692;28;88743;-71
2023/06/05 08:42:55;;;;;;;75.30;52.90;;;18.70;65.80;;;;;;4986826;28;89096;-71
2023/06/05 08:45:21;;;;;;;74.00;53.03;;;18.70;65.50;;;;;;4986442;28;89412;-71
2023/06/05 08:47:50;;;;;;;75.28;53.08;;;18.80;65.70;;;;;;4984535;28;90722;-71
2023/06/05 08:50:16;;;;;;;74.55;52.40;;;18.80;66.20;;;;;;4985454;28;90123;-72
2023/06/05 08:52:45;;;;;;;75.82;52.92;;;18.90;66.20;;;;;;4980411;28;89299;-71
2023/06/05 08:55:11;;;;;;;74.63;52.85;;;18.90;66.00;;;;;;4985224;28;88796;-71
2023/06/05 08:57:41;;;;;;;75.35;52.97;;;18.90;65.60;;;;;;4983546;28;90611;-72
2023/06/05 09:00:10;;;;;;;74.90;52.92;;;18.90;65.80;;;;;;4987346;28;89309;-71
2023/06/05 09:02:38;;;;;;;74.65;52.85;;;18.90;66.00;;;;;;4948644;28;89548;-71
2023/06/05 09:05:04;;;;;;;76.47;53.03;;;19.00;66.10;;;;;;4981257;28;88035;-71
2023/06/05 09:07:31;;;;;;;76.50;53.20;;;19.00;65.80;;;;;;4986387;28;89448;-73
2023/06/05 09:09:57;;;;;;;73.43;52.65;;;19.00;65.70;;;;;;4961724;28;91051;-71
2023/06/05 09:12:24;;;;;;;76.78;54.10;;;19.00;64.90;;;;;;4973039;28;90002;-71
2023/06/05 09:14:50;;;;;;;76.45;53.67;;;19.00;65.60;;;;;;4961127;28;89360;-71
2023/06/05 09:17:17;;;;;;;75.97;53.78;;;19.00;65.20;;;;;;4932644;28;90964;-69
2023/06/05 09:19:44;;;;;;;77.43;53.88;;;19.10;65.20;;;;;;4956976;28;90537;-69
2023/06/05 09:22:12;;;;;;;77.13;54.10;;;19.10;65.40;;;;;;4960754;28;90172;-69
2023/06/05 09:24:41;;;;;;;76.63;53.80;;;19.10;64.90;;;;;;4958569;28;89315;-70
2023/06/05 09:27:11;;;;;;;75.85;53.92;;;19.10;64.00;;;;;;4955328;28;89346;-69
2023/06/05 09:29:39;;;;;;;76.07;53.53;;;19.10;63.60;;;;;;4957303;28;88834;-69
2023/06/05 09:32:17;;;;;;;76.20;53.83;;;19.10;64.00;;;;;;4955207;28;89717;-70
2023/06/05 09:34:44;;;;;;;76.85;53.67;;;19.20;64.60;;;;;;4950037;28;89819;-69
2023/06/05 09:37:11;;;;;;;76.03;53.47;;;19.20;64.30;;;;;;4951372;28;90472;-70
2023/06/05 09:39:39;;;;;;;75.80;53.55;;;19.30;63.80;;;;;;4951819;28;90390;-69
2023/06/05 09:42:06;;;;;;;75.07;53.22;;;19.30;64.00;;;;;;4958908;28;89602;-71
2023/06/05 09:44:33;;;;;;;76.68;53.72;;;19.30;63.80;;;;;;4957329;28;89616;-71
2023/06/05 09:47:09;;;;;;;74.80;53.10;;;19.40;63.30;;;;;;4956773;28;89265;-70
2023/06/05 09:49:40;;;;;;;76.32;53.60;;;19.40;63.60;;;;;;4966187;28;88804;-70
2023/06/05 09:52:07;;;;;;;;;;;19.40;64.20;;;;;;4959643;28;89868;-70
2023/06/05 09:54:32;;;;;;;75.30;53.40;;;19.40;62.90;;;;;;4962991;28;89008;-70
2023/06/05 09:57:04;;;;;;;77.25;53.78;;;19.50;63.70;;;;;;4955496;28;89701;-69
2023/06/05 09:59:31;;;;;;;77.10;53.70;;;19.50;64.00;;;;;;4949130;28;89685;-70
2023/06/05 10:02:01;;;;;;;75.97;52.88;;;19.50;63.80;;;;;;4953878;28;90594;-70
2023/06/05 10:04:28;;;;;;;76.85;53.33;;;19.60;63.10;;;;;;4971750;28;89114;-70
2023/06/05 10:07:00;;;;;;;76.00;53.25;;;19.60;63.60;;;;;;4971585;28;89601;-71
2023/06/05 10:09:26;;;;;;;77.07;53.33;;;19.60;63.40;;;;;;4959656;28;90756;-72
2023/06/05 10:11:52;;;;;;;78.95;53.63;;;19.70;63.40;;;;;;4965901;28;89080;-70
2023/06/05 10:14:21;;;;;;;75.75;52.92;;;19.70;63.10;;;;;;4971894;28;89226;-71
2023/06/05 10:16:51;;;;;;;76.03;53.22;;;19.70;63.00;;;;;;4972244;28;89206;-72
2023/06/05 10:19:20;;;;;;;77.28;53.40;;;19.70;63.00;;;;;;4971644;28;89089;-72
2023/06/05 10:21:48;;;;;;;75.78;53.17;;;19.80;62.90;;;;;;4971621;28;91665;-71
2023/06/05 10:24:38;;;;;;;74.18;52.75;;;19.80;62.90;;;;;;4969162;28;89870;-71
2023/06/05 10:27:10;;;;;;;74.90;53.25;;;19.80;62.40;;;;;;4965149;28;91664;-71
2023/06/05 10:30:06;;;;;;;76.18;53.17;;;19.80;62.30;;;;;;4967822;28;91121;-71
2023/06/05 10:32:53;;;;;;;74.72;53.08;;;19.90;62.90;;;;;;4966354;28;90545;-72
2023/06/05 10:35:40;;;;;;;74.97;53.03;;;19.90;62.80;;;;;;4966089;28;88784;-70
2023/06/05 10:38:22;;;;;;;75.18;52.75;;;19.90;62.60;;;;;;4966007;28;89416;-70
2023/06/05 10:41:08;;;;;;;75.57;52.97;;;20.00;62.50;;;;;;4946436;28;89365;-70
2023/06/05 10:43:49;;;;;;;76.68;52.88;;;20.00;62.40;;;;;;4946552;28;89984;-70
2023/06/05 10:46:28;;;;;;;;;;;20.10;62.20;;;;;;4976948;28;88145;-70
2023/06/05 10:49:17;;;;;;;75.07;52.78;;;20.10;62.10;;;;;;4969665;28;89020;-70
2023/06/05 10:51:47;;;;;;;74.95;53.22;;;20.20;61.70;;;;;;4957654;28;89770;-70
2023/06/05 10:54:23;;;;;;;75.95;52.72;;;20.20;61.70;;;;;;4967105;28;90232;-70
2023/06/05 10:57:05;;;;;;;75.22;53.08;;;20.20;61.30;;;;;;4966557;28;89420;-71
2023/06/05 10:59:39;;;;;;;76.15;52.75;;;20.20;61.40;;;;;;4965832;28;89590;-72
2023/06/05 11:02:18;;;;;;;75.28;53.10;;;20.30;61.20;;;;;;4963491;28;91662;-71
2023/06/05 11:04:47;;;;;;;77.80;53.00;;;20.30;61.20;;;;;;4950031;28;89686;-70
2023/06/05 11:07:24;;;;;;;75.38;53.03;;;20.30;61.20;;;;;;4969205;28;89192;-71
2023/06/05 11:10:05;;;;;;;75.80;53.00;;;20.30;61.20;;;;;;4966117;28;89653;-71
2023/06/05 11:12:42;;;;;;;76.18;53.00;;;20.40;61.00;;;;;;4971165;28;88799;-70
2023/06/05 11:15:09;;;;;;;75.70;52.78;;;20.40;60.80;;;;;;4969525;28;89351;-71
2023/06/05 11:17:40;;;;;;;76.00;52.75;;;20.50;60.60;;;;;;4967031;28;92428;-71
2023/06/05 11:20:09;;;;;;;76.65;53.15;;;20.50;60.70;;;;;;4969558;28;90150;-69
2023/06/05 11:22:55;;;;;;;76.32;52.58;;;20.50;60.60;;;;;;4967993;28;91283;-70
2023/06/05 11:25:21;;;;;;;75.65;52.88;;;20.60;61.10;;;;;;4966332;28;89041;-71
2023/06/05 11:27:49;;;;;;;77.13;53.30;;;20.60;61.00;;;;;;4967708;28;89551;-69
2023/06/05 11:30:28;;;;;;;75.93;52.97;;;20.70;61.30;;;;;;4976068;28;90145;-72
2023/06/05 11:32:58;;;;;;;76.40;53.17;;;20.70;61.10;;;;;;4953541;28;90782;-71
2023/06/05 11:35:27;;;;;;;79.72;52.95;;;20.80;60.10;;;;;;4952287;28;89551;-71
2023/06/05 11:38:14;;;;;;;76.22;53.08;;;20.70;60.70;;;;;;4944489;28;88760;-71
2023/06/05 11:40:41;;;;;;;77.25;53.13;;;20.80;59.80;;;;;;4979596;28;94037;-69
2023/06/05 11:43:08;;;;;;;75.72;53.17;;;20.80;60.30;;;;;;4983477;28;91210;-70
2023/06/05 11:45:36;;;;;;;76.45;53.00;;;20.90;59.60;;;;;;4968420;28;91124;-70
2023/06/05 11:48:09;;;;;;;76.45;53.40;;;20.90;59.40;;;;;;4976179;28;89635;-70
2023/06/05 11:50:36;;;;;;;77.13;52.88;;;20.90;59.50;;;;;;4987846;28;88965;-70
2023/06/05 11:53:09;;;;;;;79.50;53.25;;;20.90;59.30;;;;;;4996541;28;89171;-70
2023/06/05 11:58:26;;;;;;;76.68;53.13;;;21.00;59.40;;;;;;4992873;28;89430;-70
2023/06/05 12:01:04;;;;;;;77.97;53.15;;;21.10;59.00;;;;;;4990771;28;89659;-70
2023/06/05 12:03:29;;;;;;;79.55;53.15;;;21.10;59.00;;;;;;4994761;28;89383;-70
2023/06/05 12:05:55;;;;;;;76.35;53.17;;;21.10;59.10;;;;;;4985746;28;89058;-70
2023/06/05 12:08:25;;;;;;;78.38;53.13;;;21.10;58.70;;;;;;4979008;28;89281;-70
2023/06/05 12:10:52;;;;;;;76.35;52.95;;;21.20;58.50;;;;;;4989255;28;90080;-70
2023/06/05 12:13:17;;;;;;;75.70;53.10;;;21.20;58.60;;;;;;4996041;28;89591;-70
2023/06/05 12:15:55;;;;;;;77.05;53.03;;;21.20;58.70;;;;;;4953830;28;90159;-69
2023/06/05 12:18:21;;;;;;;77.03;53.40;;;21.20;58.70;;;;;;4952271;28;89154;-71
2023/06/05 12:20:46;;;;;;;77.45;53.47;;;21.30;59.00;;;;;;4955413;28;89103;-71
2023/06/05 12:23:18;;;;;;;78.20;53.75;;;21.30;58.50;;;;;;4957940;28;89584;-70
2023/06/05 12:25:44;;;;;;;78.30;53.20;;;21.30;58.60;;;;;;4953951;28;89182;-70
2023/06/05 12:28:20;;;;;;;77.30;53.10;;;21.30;58.50;;;;;;4953410;28;88668;-74
2023/06/05 12:30:45;;;;;;;77.30;53.30;;;21.40;59.30;;;;;;4951157;28;89157;-70
2023/06/05 12:33:11;;;;;;;78.13;53.33;;;21.40;59.00;;;;;;4952328;28;88773;-70
2023/06/05 12:35:36;;;;;;;76.28;53.42;;;21.40;59.00;;;;;;4945900;28;89988;-71